createdAt,value
2023-02-18T00:01:19.166Z,17.84
2023-02-18T00:06:19.096Z,17.83
2023-02-18T00:11:19.028Z,17.81
2023-02-18T00:16:18.965Z,17.81
2023-02-18T00:21:18.897Z,17.80
2023-02-18T00:26:18.835Z,17.81
2023-02-18T00:31:18.920Z,17.76
2023-02-18T00:36:18.702Z,17.74
2023-02-18T00:41:18.643Z,17.77
2023-02-18T00:46:18.639Z,17.73
2023-02-18T00:51:18.505Z,17.68
2023-02-18T00:56:18.449Z,17.71
2023-02-18T01:01:18.383Z,17.71
2023-02-18T01:06:18.311Z,17.66
2023-02-18T01:11:18.315Z,17.66
2023-02-18T01:16:18.215Z,17.68
2023-02-18T01:21:18.118Z,17.65
2023-02-18T01:26:18.061Z,17.63
2023-02-18T01:31:18.119Z,17.58
2023-02-18T01:36:17.924Z,17.58
2023-02-18T01:41:17.851Z,17.60
2023-02-18T01:46:17.837Z,17.57
2023-02-18T01:51:17.727Z,17.54
2023-02-18T01:56:17.656Z,17.57
2023-02-18T02:01:17.585Z,17.53
2023-02-18T02:06:17.536Z,17.54
2023-02-18T02:11:17.452Z,17.53
2023-02-18T02:16:17.405Z,17.53
2023-02-18T02:21:17.329Z,17.49
2023-02-18T02:26:17.253Z,17.51
2023-02-18T02:31:17.315Z,17.51
2023-02-18T02:36:17.126Z,17.51
2023-02-18T02:41:17.060Z,17.46
2023-02-18T02:46:17.141Z,17.49
2023-02-18T02:51:16.936Z,17.45
2023-02-18T02:56:16.937Z,17.45
2023-02-18T03:01:16.823Z,17.40
2023-02-18T03:06:16.736Z,17.42
2023-02-18T03:11:16.673Z,17.38
2023-02-18T03:16:16.657Z,17.38
2023-02-18T03:21:16.547Z,17.38
2023-02-18T03:26:16.479Z,17.38
2023-02-18T03:31:16.546Z,17.33
2023-02-18T03:36:16.352Z,17.36
2023-02-18T03:41:16.276Z,17.36
2023-02-18T03:46:16.274Z,17.33
2023-02-18T03:51:16.145Z,17.30
2023-02-18T03:56:16.087Z,17.27
2023-02-18T04:01:16.053Z,17.28
2023-02-18T04:06:15.952Z,17.24
2023-02-18T04:11:15.887Z,17.25
2023-02-18T04:16:15.850Z,17.24
2023-02-18T04:21:15.747Z,17.22
2023-02-18T04:26:15.693Z,17.21
2023-02-18T04:31:15.771Z,17.22
2023-02-18T04:36:15.560Z,17.22
2023-02-18T04:41:15.487Z,17.45
2023-02-18T04:46:15.482Z,17.79
2023-02-18T04:51:15.354Z,17.99
2023-02-18T04:56:15.294Z,18.09
2023-02-18T05:01:15.301Z,18.13
2023-02-18T05:06:15.167Z,18.21
2023-02-18T05:11:15.098Z,18.28
2023-02-18T05:16:15.121Z,18.34
2023-02-18T05:21:14.975Z,18.41
2023-02-18T05:26:14.908Z,18.42
2023-02-18T05:31:14.861Z,18.44
2023-02-18T05:36:14.722Z,18.44
2023-02-18T05:41:14.651Z,18.42
2023-02-18T05:46:14.638Z,18.38
2023-02-18T05:51:14.525Z,18.34
2023-02-18T05:56:14.706Z,18.29
2023-02-18T06:01:14.391Z,18.25
2023-02-18T06:06:14.387Z,18.16
2023-02-18T06:11:14.256Z,17.99
2023-02-18T06:16:14.224Z,17.89
2023-02-18T06:21:14.127Z,18.02
2023-02-18T06:26:14.084Z,18.32
2023-02-18T06:31:14.122Z,18.51
2023-02-18T06:36:13.943Z,18.66
2023-02-18T06:41:13.858Z,18.82
2023-02-18T06:46:13.856Z,19.02
2023-02-18T06:51:13.725Z,19.17
2023-02-18T06:56:13.665Z,19.49
2023-02-18T07:01:13.635Z,19.64
2023-02-18T07:06:13.542Z,19.64
2023-02-18T07:11:13.467Z,19.71
2023-02-18T07:16:13.420Z,18.29
2023-02-18T07:21:13.326Z,17.21
2023-02-18T07:26:13.284Z,17.30
2023-02-18T07:31:13.388Z,17.60
2023-02-18T07:36:13.142Z,17.77
2023-02-18T07:41:13.071Z,17.95
2023-02-18T07:46:13.257Z,18.56
2023-02-18T07:51:12.946Z,19.07
2023-02-18T07:56:12.889Z,19.32
2023-02-18T08:01:13.067Z,19.75
2023-02-18T08:06:15.140Z,19.92
2023-02-18T08:11:18.789Z,20.02
2023-02-18T08:16:12.662Z,20.30
2023-02-18T08:21:12.559Z,21.37
2023-02-18T08:26:12.492Z,24.15
2023-02-18T08:31:12.587Z,25.24
2023-02-18T08:36:12.366Z,27.09
2023-02-18T08:41:12.326Z,27.11
2023-02-18T08:46:12.762Z,28.48
2023-02-18T08:51:12.643Z,26.97
2023-02-18T08:56:12.109Z,25.85
2023-02-18T09:01:12.063Z,25.29
2023-02-18T09:06:11.972Z,24.08
2023-02-18T09:11:11.906Z,24.26
2023-02-18T09:16:11.907Z,24.52
2023-02-18T09:21:11.814Z,24.06
2023-02-18T09:26:11.714Z,24.44
2023-02-18T09:31:12.188Z,24.86
2023-02-18T09:36:11.593Z,25.20
2023-02-18T09:41:11.514Z,25.34
2023-02-18T09:46:11.472Z,25.08
2023-02-18T09:51:11.386Z,24.60
2023-02-18T09:56:11.331Z,24.23
2023-02-18T10:01:11.754Z,24.04
2023-02-18T10:06:11.602Z,23.79
2023-02-18T10:11:11.232Z,23.37
2023-02-18T10:16:11.401Z,23.11
2023-02-18T10:21:11.143Z,22.75
2023-02-18T10:26:11.145Z,22.63
2023-02-18T10:31:11.815Z,22.54
2023-02-18T10:36:10.820Z,22.42
2023-02-18T10:41:10.895Z,22.42
2023-02-18T10:46:13.272Z,22.42
2023-02-18T10:51:10.642Z,22.44
2023-02-18T10:56:10.590Z,22.38
2023-02-18T11:01:10.826Z,22.35
2023-02-18T11:06:10.431Z,22.51
2023-02-18T11:11:10.547Z,22.35
2023-02-18T11:16:10.329Z,22.30
2023-02-18T11:21:10.528Z,22.33
2023-02-18T11:26:10.174Z,22.20
2023-02-18T11:31:10.591Z,22.20
2023-02-18T11:36:10.045Z,22.08
2023-02-18T11:41:10.308Z,22.09
2023-02-18T11:46:09.917Z,22.21
2023-02-18T11:51:10.116Z,22.24
2023-02-18T11:56:09.792Z,22.24
2023-02-18T12:01:10.000Z,22.30
2023-02-18T12:06:09.668Z,22.27
2023-02-18T12:11:10.030Z,22.24
2023-02-18T12:16:09.664Z,22.19
2023-02-18T12:21:09.892Z,22.12
2023-02-18T12:26:09.417Z,21.91
2023-02-18T12:31:09.723Z,21.75
2023-02-18T12:36:09.687Z,21.61
2023-02-18T12:41:09.614Z,21.56
2023-02-18T12:46:09.187Z,21.49
2023-02-18T12:51:09.488Z,21.45
2023-02-18T12:56:09.456Z,21.45
2023-02-18T13:01:08.964Z,21.48
2023-02-18T13:06:09.143Z,21.37
2023-02-18T13:11:08.830Z,21.21
2023-02-18T13:16:09.078Z,21.18
2023-02-18T13:21:08.697Z,21.12
2023-02-18T13:26:08.780Z,20.98
2023-02-18T13:31:09.086Z,20.94
2023-02-18T13:36:08.512Z,20.96
2023-02-18T13:41:08.735Z,21.06
2023-02-18T13:46:08.449Z,21.31
2023-02-18T13:51:08.613Z,21.37
2023-02-18T13:56:08.254Z,21.42
2023-02-18T14:01:08.527Z,21.37
2023-02-18T14:06:08.126Z,21.30
2023-02-18T14:11:08.277Z,21.28
2023-02-18T14:16:08.084Z,21.19
2023-02-18T14:21:08.340Z,21.13
2023-02-18T14:26:07.873Z,21.13
2023-02-18T14:31:08.128Z,21.11
2023-02-18T14:36:07.740Z,21.00
2023-02-18T14:41:07.947Z,20.94
2023-02-18T14:46:07.657Z,20.97
2023-02-18T14:51:07.886Z,20.97
2023-02-18T14:56:07.829Z,21.11
2023-02-18T15:01:07.428Z,21.18
2023-02-18T15:06:08.355Z,21.24
2023-02-18T15:11:07.304Z,21.21
2023-02-18T15:16:07.516Z,21.21
2023-02-18T15:21:07.487Z,21.28
2023-02-18T15:26:07.249Z,21.42
2023-02-18T15:31:07.234Z,21.38
2023-02-18T15:36:07.002Z,21.21
2023-02-18T15:41:07.370Z,21.26
2023-02-18T15:46:06.856Z,21.19
2023-02-18T15:51:16.526Z,21.26
2023-02-18T15:56:06.721Z,21.06
2023-02-18T16:01:06.766Z,21.13
2023-02-18T16:06:06.588Z,21.15
2023-02-18T16:11:06.775Z,21.15
2023-02-18T16:16:06.575Z,21.01
2023-02-18T16:21:06.391Z,20.98
2023-02-18T16:26:06.373Z,21.06
2023-02-18T16:31:06.317Z,21.08
2023-02-18T16:36:06.229Z,21.01
2023-02-18T16:41:06.151Z,20.94
2023-02-18T16:46:06.238Z,20.94
2023-02-18T16:51:06.018Z,20.90
2023-02-18T16:56:05.942Z,20.85
2023-02-18T17:01:05.900Z,20.88
2023-02-18T17:06:05.845Z,20.87
2023-02-18T17:11:05.747Z,20.91
2023-02-18T17:16:05.741Z,20.82
2023-02-18T17:21:05.619Z,20.79
2023-02-18T17:26:05.567Z,20.88
2023-02-18T17:31:05.501Z,20.87
2023-02-18T17:36:05.436Z,20.85
2023-02-18T17:41:05.372Z,20.91
2023-02-18T17:46:05.339Z,20.88
2023-02-18T17:51:05.245Z,20.83
2023-02-18T17:56:05.179Z,20.83
2023-02-18T18:01:05.125Z,20.85
2023-02-18T18:06:05.050Z,20.83
2023-02-18T18:11:04.975Z,20.76
2023-02-18T18:16:04.926Z,20.63
2023-02-18T18:21:04.849Z,20.40
2023-02-18T18:26:04.789Z,20.30
2023-02-18T18:31:04.877Z,20.20
2023-02-18T18:36:04.662Z,20.17
2023-02-18T18:41:04.599Z,20.12
2023-02-18T18:46:04.563Z,20.15
2023-02-18T18:51:04.476Z,20.13
2023-02-18T18:56:04.412Z,20.10
2023-02-18T19:01:04.393Z,20.08
2023-02-18T19:06:04.289Z,20.00
2023-02-18T19:11:04.210Z,20.00
2023-02-18T19:16:04.235Z,19.98
2023-02-18T19:21:04.083Z,19.97
2023-02-18T19:26:04.025Z,19.89
2023-02-18T19:31:04.273Z,19.82
2023-02-18T19:36:03.895Z,19.76
2023-02-18T19:41:03.828Z,19.72
2023-02-18T19:46:03.789Z,19.61
2023-02-18T19:51:03.703Z,19.58
2023-02-18T19:56:03.643Z,19.47
2023-02-18T20:01:03.582Z,19.40
2023-02-18T20:06:03.520Z,19.34
2023-02-18T20:11:03.469Z,19.27
2023-02-18T20:16:03.425Z,19.21
2023-02-18T20:21:03.367Z,19.09
2023-02-18T20:26:03.258Z,19.05
2023-02-18T20:31:03.204Z,18.94
2023-02-18T20:36:03.132Z,18.86
2023-02-18T20:41:03.060Z,18.86
2023-02-18T20:46:03.005Z,18.79
2023-02-18T20:51:02.933Z,18.76
2023-02-18T20:56:02.875Z,18.75
2023-02-18T21:01:02.809Z,18.71
2023-02-18T21:06:02.756Z,18.66
2023-02-18T21:11:02.683Z,18.62
2023-02-18T21:16:02.637Z,18.62
2023-02-18T21:21:02.551Z,18.56
2023-02-18T21:26:02.517Z,18.53
2023-02-18T21:31:02.456Z,18.50
2023-02-18T21:36:02.369Z,18.47
2023-02-18T21:41:02.285Z,18.42
2023-02-18T21:46:02.228Z,18.39
2023-02-18T21:51:02.222Z,18.35
2023-02-18T21:56:04.012Z,18.34
2023-02-18T22:01:02.160Z,18.35
2023-02-18T22:06:02.040Z,18.29
2023-02-18T22:11:01.956Z,18.21
2023-02-18T22:16:01.915Z,18.20
2023-02-18T22:21:01.876Z,18.21
2023-02-18T22:26:01.770Z,18.14
2023-02-18T22:31:01.691Z,18.16
2023-02-18T22:36:01.631Z,18.16
2023-02-18T22:41:01.552Z,18.10
2023-02-18T22:46:01.516Z,18.07
2023-02-18T22:51:01.426Z,18.01
2023-02-18T22:56:01.358Z,18.04
2023-02-18T23:01:01.335Z,18.02
2023-02-18T23:06:01.226Z,18.05
2023-02-18T23:11:01.160Z,18.01
2023-02-18T23:16:01.099Z,17.98
2023-02-18T23:21:01.026Z,17.98
2023-02-18T23:26:00.972Z,17.94
2023-02-18T23:31:00.984Z,17.95
2023-02-18T23:36:00.843Z,17.92
2023-02-18T23:41:00.766Z,17.91
2023-02-18T23:46:00.812Z,17.81
2023-02-18T23:51:00.645Z,17.83
2023-02-18T23:56:00.575Z,17.84
